createdAt,value
2022-11-24T00:03:18.416Z,7.27
2022-11-24T00:13:19.867Z,7.12
2022-11-24T00:23:21.253Z,7.14
2022-11-24T00:33:22.663Z,7.15
2022-11-24T00:43:24.203Z,7.17
2022-11-24T00:53:26.094Z,7.15
2022-11-24T01:03:27.720Z,7.11
2022-11-24T01:13:29.085Z,7.07
2022-11-24T01:23:30.558Z,7.15
2022-11-24T01:33:32.120Z,7.11
2022-11-24T01:43:34.296Z,7.18
2022-11-24T01:53:36.808Z,7.19
2022-11-24T02:03:43.764Z,7.33
2022-11-24T02:13:46.247Z,7.31
2022-11-24T02:24:05.898Z,7.41
2022-11-24T02:34:07.255Z,7.14
2022-11-24T02:44:09.169Z,7.28
2022-11-24T02:54:10.563Z,7.22
2022-11-24T03:04:12.656Z,7.30
2022-11-24T03:14:14.035Z,7.35
2022-11-24T03:24:15.687Z,7.34
2022-11-24T03:34:17.085Z,7.43
2022-11-24T03:44:18.505Z,7.34
2022-11-24T03:54:19.876Z,7.49
2022-11-24T04:04:21.271Z,7.64
2022-11-24T04:14:22.676Z,7.69
2022-11-24T04:24:24.049Z,7.88
2022-11-24T04:34:25.377Z,7.98
2022-11-24T04:44:26.992Z,7.89
2022-11-24T04:54:28.316Z,7.96
2022-11-24T05:04:29.661Z,8.05
2022-11-24T05:14:31.232Z,8.13
2022-11-24T05:24:32.879Z,8.28
2022-11-24T05:34:34.620Z,8.13
2022-11-24T05:44:36.431Z,8.27
2022-11-24T05:54:38.052Z,8.20
2022-11-24T06:04:40.446Z,8.25
2022-11-24T06:14:42.264Z,8.26
2022-11-24T06:24:43.615Z,8.23
2022-11-24T06:34:45.000Z,8.23
2022-11-24T06:44:50.050Z,8.21
2022-11-24T06:54:51.450Z,8.27
2022-11-24T07:04:52.819Z,8.31
2022-11-24T07:14:54.475Z,8.28
2022-11-24T07:24:55.825Z,8.34
2022-11-24T07:34:57.147Z,8.38
2022-11-24T07:44:58.488Z,8.45
2022-11-24T07:54:59.885Z,8.44
2022-11-24T08:05:01.370Z,8.46
2022-11-24T08:15:07.836Z,8.48
2022-11-24T08:25:14.358Z,8.48
2022-11-24T08:35:15.775Z,8.55
2022-11-24T08:45:21.956Z,8.58
2022-11-24T08:55:24.548Z,8.62
2022-11-24T09:05:50.731Z,8.69
2022-11-24T09:15:47.489Z,8.75
2022-11-24T09:25:48.912Z,8.79
2022-11-24T09:35:50.455Z,8.87
2022-11-24T09:46:06.317Z,8.93
2022-11-24T09:56:22.398Z,8.99
2022-11-24T10:06:26.912Z,9.05
2022-11-24T10:16:52.538Z,9.11
2022-11-24T10:27:02.315Z,9.31
2022-11-24T10:37:23.495Z,9.46
2022-11-24T10:47:24.856Z,9.54
2022-11-24T10:57:34.190Z,9.73
2022-11-24T11:07:35.631Z,9.86
2022-11-24T11:17:38.977Z,9.91
2022-11-24T11:27:41.147Z,9.93
2022-11-24T11:37:44.014Z,10.02
2022-11-24T11:48:04.073Z,10.19
2022-11-24T11:58:17.359Z,10.25
2022-11-24T12:09:17.948Z,10.36
2022-11-24T12:19:37.574Z,10.50
2022-11-24T12:29:45.110Z,10.55
2022-11-24T12:40:05.430Z,10.68
2022-11-24T12:50:14.541Z,10.61
2022-11-24T13:00:29.046Z,10.66
2022-11-24T13:10:54.634Z,10.74
2022-11-24T13:20:55.299Z,10.80
2022-11-24T13:31:11.259Z,10.76
2022-11-24T13:41:31.284Z,10.66
2022-11-24T13:51:32.955Z,10.64
2022-11-24T14:01:36.577Z,10.63
2022-11-24T14:11:38.145Z,10.65
2022-11-24T14:21:44.244Z,10.65
2022-11-24T14:31:59.442Z,10.63
2022-11-24T14:42:07.813Z,10.60
2022-11-24T14:52:16.315Z,10.54
2022-11-24T15:02:39.720Z,10.41
2022-11-24T15:12:48.385Z,10.31
2022-11-24T15:22:52.281Z,10.16
2022-11-24T15:32:55.060Z,9.94
2022-11-24T15:42:59.600Z,9.76
2022-11-24T15:53:05.738Z,9.64
2022-11-24T16:03:38.360Z,9.50
2022-11-24T16:13:28.769Z,9.30
2022-11-24T16:23:30.112Z,9.13
2022-11-24T16:33:31.839Z,8.97
2022-11-24T16:43:33.273Z,8.78
2022-11-24T16:53:34.667Z,8.69
2022-11-24T17:03:39.483Z,8.57
2022-11-24T17:13:41.738Z,8.43
2022-11-24T17:23:43.359Z,8.47
2022-11-24T17:33:44.675Z,8.40
2022-11-24T17:43:50.320Z,8.42
2022-11-24T17:53:53.399Z,8.32
2022-11-24T18:03:54.753Z,8.18
2022-11-24T18:14:00.768Z,8.19
2022-11-24T18:24:02.658Z,8.30
2022-11-24T18:34:05.612Z,8.12
2022-11-24T18:44:08.620Z,7.95
2022-11-24T18:54:10.180Z,7.84
2022-11-24T19:04:12.714Z,7.77
2022-11-24T19:14:16.679Z,7.68
2022-11-24T19:24:18.023Z,7.72
2022-11-24T19:34:19.471Z,7.69
2022-11-24T19:44:20.874Z,7.59
2022-11-24T19:54:22.219Z,7.62
2022-11-24T20:04:23.675Z,7.58
2022-11-24T20:14:25.168Z,7.61
2022-11-24T20:24:26.539Z,7.56
2022-11-24T20:34:28.373Z,7.46
2022-11-24T20:44:30.200Z,7.39
2022-11-24T20:54:31.566Z,7.38
2022-11-24T21:04:35.029Z,7.30
2022-11-24T21:14:37.052Z,7.28
2022-11-24T21:24:38.559Z,7.33
2022-11-24T21:34:39.886Z,7.28
2022-11-24T21:44:41.264Z,7.35
2022-11-24T21:54:42.619Z,7.35
2022-11-24T22:04:43.927Z,7.44
2022-11-24T22:14:45.903Z,7.54
2022-11-24T22:24:47.398Z,7.69
2022-11-24T22:34:48.733Z,7.83
2022-11-24T22:44:50.074Z,7.99
2022-11-24T22:54:51.396Z,8.04
2022-11-24T23:04:52.799Z,8.07
2022-11-24T23:14:54.099Z,8.05
2022-11-24T23:24:55.427Z,8.12
2022-11-24T23:34:56.763Z,8.24
2022-11-24T23:44:58.091Z,8.21
2022-11-24T23:54:59.406Z,8.18
